createdAt,value
2023-05-02T00:02:11.716Z,86
2023-05-02T00:07:11.684Z,86
2023-05-02T00:12:11.777Z,86
2023-05-02T00:17:11.676Z,85.5
2023-05-02T00:22:11.630Z,86
2023-05-02T00:27:11.700Z,85.5
2023-05-02T00:32:11.642Z,86
2023-05-02T00:37:11.562Z,86
2023-05-02T00:42:11.605Z,85.5
2023-05-02T00:47:11.533Z,85
2023-05-02T00:52:11.588Z,85
2023-05-02T00:57:11.480Z,85.5
2023-05-02T01:02:11.462Z,85.5
2023-05-02T01:07:11.510Z,86
2023-05-02T01:12:11.454Z,86
2023-05-02T01:17:11.389Z,86
2023-05-02T01:22:11.382Z,85.5
2023-05-02T01:27:11.396Z,85
2023-05-02T01:32:11.337Z,84
2023-05-02T01:37:11.304Z,84
2023-05-02T01:42:11.338Z,85
2023-05-02T01:47:11.291Z,84
2023-05-02T01:52:11.280Z,83.5
2023-05-02T01:57:11.253Z,84.5
2023-05-02T02:02:11.321Z,85
2023-05-02T02:07:11.260Z,84.5
2023-05-02T02:12:11.179Z,84
2023-05-02T02:17:11.203Z,84
2023-05-02T02:22:11.128Z,84.5
2023-05-02T02:27:11.109Z,84.5
2023-05-02T02:32:11.119Z,84.5
2023-05-02T02:37:11.078Z,83
2023-05-02T02:42:11.052Z,84.5
2023-05-02T02:47:11.073Z,84.5
2023-05-02T02:52:11.008Z,84.5
2023-05-02T02:57:11.001Z,84.5
2023-05-02T03:02:10.982Z,84
2023-05-02T03:07:11.010Z,84
2023-05-02T03:12:10.930Z,84.5
2023-05-02T03:17:10.915Z,84.5
2023-05-02T03:22:10.913Z,84.5
2023-05-02T03:27:10.886Z,84
2023-05-02T03:32:10.856Z,84.5
2023-05-02T03:37:10.831Z,84
2023-05-02T03:42:10.876Z,84
2023-05-02T03:47:10.924Z,84
2023-05-02T03:52:10.775Z,83.5
2023-05-02T03:57:10.814Z,84
2023-05-02T04:02:10.745Z,84
2023-05-02T04:07:10.732Z,84
2023-05-02T04:12:10.787Z,84
2023-05-02T04:17:10.671Z,84
2023-05-02T04:22:10.730Z,84
2023-05-02T04:27:10.652Z,83.5
2023-05-02T04:32:10.617Z,83
2023-05-02T04:37:10.625Z,84
2023-05-02T04:42:10.807Z,86
2023-05-02T04:47:10.553Z,85
2023-05-02T04:52:10.616Z,84.5
2023-05-02T04:57:10.530Z,84
2023-05-02T05:02:10.533Z,84
2023-05-02T05:07:10.497Z,83.5
2023-05-02T05:12:10.566Z,83.5
2023-05-02T05:17:10.447Z,84
2023-05-02T05:22:10.427Z,83.5
2023-05-02T05:27:10.465Z,84
2023-05-02T05:32:10.454Z,83
2023-05-02T05:37:10.364Z,84
2023-05-02T05:42:10.344Z,85.5
2023-05-02T05:47:10.327Z,83.5
2023-05-02T05:52:10.394Z,86.5
2023-05-02T05:57:10.300Z,87
2023-05-02T06:02:10.336Z,87.5
2023-05-02T06:07:10.306Z,88
2023-05-02T06:12:10.330Z,88
2023-05-02T06:17:10.282Z,88.5
2023-05-02T06:22:10.328Z,88.5
2023-05-02T06:27:10.397Z,90
2023-05-02T06:32:10.244Z,93.5
2023-05-02T06:37:10.113Z,94
2023-05-02T06:42:10.251Z,97
2023-05-02T06:47:10.181Z,99
2023-05-02T06:52:10.102Z,99
2023-05-02T06:57:10.049Z,100
2023-05-02T07:02:10.086Z,98.5
2023-05-02T07:07:10.041Z,99.5
2023-05-02T07:12:09.968Z,100
2023-05-02T07:17:09.965Z,100
2023-05-02T07:22:09.958Z,99.5
2023-05-02T07:27:09.923Z,100
2023-05-02T07:32:09.895Z,100
2023-05-02T07:37:09.867Z,99.5
2023-05-02T07:42:09.858Z,100
2023-05-02T07:47:09.825Z,100
2023-05-02T07:52:09.907Z,100
2023-05-02T07:57:09.794Z,100
2023-05-02T08:02:09.820Z,96
2023-05-02T08:07:09.757Z,100
2023-05-02T08:12:09.717Z,100
2023-05-02T08:17:09.806Z,100
2023-05-02T08:22:09.682Z,100
2023-05-02T08:27:09.708Z,100
2023-05-02T08:32:09.655Z,100
2023-05-02T08:37:09.624Z,100
2023-05-02T08:42:09.615Z,100
2023-05-02T08:47:09.752Z,100
2023-05-02T08:52:09.711Z,100
2023-05-02T08:57:09.602Z,100
2023-05-02T09:02:09.684Z,100
2023-05-02T09:07:09.595Z,100
2023-05-02T09:12:09.630Z,100
2023-05-02T09:17:09.589Z,98.5
2023-05-02T09:22:09.650Z,91.5
2023-05-02T09:27:09.615Z,83.5
2023-05-02T09:32:09.574Z,74
2023-05-02T09:37:09.569Z,63
2023-05-02T09:42:09.421Z,58
2023-05-02T09:47:09.490Z,54
2023-05-02T09:52:09.297Z,55.5
2023-05-02T09:57:09.434Z,67.5
2023-05-02T10:02:09.395Z,60
2023-05-02T10:07:09.381Z,52
2023-05-02T10:12:09.221Z,44.5
2023-05-02T10:17:09.337Z,41.5
2023-05-02T10:22:09.414Z,41
2023-05-02T10:27:09.272Z,39
2023-05-02T10:32:09.152Z,49.5
2023-05-02T10:37:09.208Z,57
2023-05-02T10:42:09.254Z,59.5
2023-05-02T10:47:09.076Z,63.5
2023-05-02T10:52:09.225Z,61.5
2023-05-02T10:57:09.032Z,64.5
2023-05-02T11:02:09.099Z,69
2023-05-02T11:07:09.112Z,71
2023-05-02T11:12:09.151Z,83
2023-05-02T11:17:09.060Z,79.5
2023-05-02T11:22:09.090Z,74
2023-05-02T11:27:09.115Z,78
2023-05-02T11:32:09.034Z,75
2023-05-02T11:37:09.067Z,72.5
2023-05-02T11:42:09.027Z,75
2023-05-02T11:47:08.934Z,74
2023-05-02T11:52:08.936Z,79.5
2023-05-02T11:57:08.986Z,79
2023-05-02T12:02:08.934Z,75.5
2023-05-02T12:07:08.893Z,73
2023-05-02T12:12:08.880Z,74
2023-05-02T12:17:08.847Z,74
2023-05-02T12:22:08.814Z,73.5
2023-05-02T12:27:08.852Z,70.5
2023-05-02T12:32:08.741Z,68.5
2023-05-02T12:37:08.605Z,69.5
2023-05-02T12:42:08.780Z,67.5
2023-05-02T12:47:08.623Z,69
2023-05-02T12:52:08.745Z,64.5
2023-05-02T12:57:08.611Z,66.5
2023-05-02T13:02:08.698Z,70
2023-05-02T13:07:08.729Z,69
2023-05-02T13:12:08.684Z,69.5
2023-05-02T13:17:08.475Z,69
2023-05-02T13:22:08.497Z,72.5
2023-05-02T13:27:08.558Z,68.5
2023-05-02T13:32:08.583Z,79
2023-05-02T13:37:08.567Z,85.5
2023-05-02T13:42:08.525Z,91.5
2023-05-02T13:47:08.477Z,93
2023-05-02T13:52:08.463Z,97.5
2023-05-02T13:57:08.454Z,99
2023-05-02T14:02:08.487Z,97
2023-05-02T14:07:08.388Z,92.5
2023-05-02T14:12:08.469Z,91
2023-05-02T14:17:08.393Z,89
2023-05-02T14:22:08.342Z,88.5
2023-05-02T14:27:08.210Z,85.5
2023-05-02T14:32:08.120Z,87.5
2023-05-02T14:37:08.239Z,87
2023-05-02T14:42:08.298Z,85.5
2023-05-02T14:47:08.108Z,83
2023-05-02T14:52:08.170Z,81.5
2023-05-02T14:57:08.102Z,79
2023-05-02T15:02:07.983Z,76.5
2023-05-02T15:07:07.962Z,78
2023-05-02T15:12:08.118Z,76
2023-05-02T15:17:08.124Z,73.5
2023-05-02T15:22:08.090Z,75.5
2023-05-02T15:27:07.915Z,73.5
2023-05-02T15:32:07.924Z,74
2023-05-02T15:37:07.977Z,75
2023-05-02T15:42:07.980Z,73
2023-05-02T15:47:07.887Z,70
2023-05-02T15:52:07.817Z,71
2023-05-02T15:57:07.850Z,69.5
2023-05-02T16:02:07.739Z,71
2023-05-02T16:07:07.805Z,73.5
2023-05-02T16:12:07.762Z,72
2023-05-02T16:17:07.680Z,71
2023-05-02T16:22:07.646Z,72
2023-05-02T16:27:07.741Z,72
2023-05-02T16:32:07.689Z,73.5
2023-05-02T16:37:07.700Z,73.5
2023-05-02T16:42:07.568Z,74
2023-05-02T16:47:07.704Z,74
2023-05-02T16:52:07.521Z,74.5
2023-05-02T16:57:07.556Z,75
2023-05-02T17:02:07.550Z,73
2023-05-02T17:07:07.605Z,72
2023-05-02T17:12:07.461Z,73
2023-05-02T17:17:07.632Z,74.5
2023-05-02T17:22:07.395Z,74
2023-05-02T17:27:07.449Z,75
2023-05-02T17:32:07.411Z,75.5
2023-05-02T17:37:07.438Z,78
2023-05-02T17:42:07.348Z,76
2023-05-02T17:47:07.447Z,78
2023-05-02T17:52:07.386Z,79.5
2023-05-02T17:57:07.254Z,79.5
2023-05-02T18:02:07.266Z,82
2023-05-02T18:07:07.221Z,82
2023-05-02T18:12:07.185Z,83.5
2023-05-02T18:17:07.283Z,84
2023-05-02T18:22:07.150Z,85
2023-05-02T18:27:07.341Z,84.5
2023-05-02T18:32:07.370Z,84
2023-05-02T18:37:07.349Z,83.5
2023-05-02T18:42:07.062Z,85
2023-05-02T18:47:07.204Z,84.5
2023-05-02T18:52:07.101Z,89.5
2023-05-02T18:57:07.008Z,88.5
2023-05-02T19:02:07.175Z,92
2023-05-02T19:07:07.103Z,93.5
2023-05-02T19:12:07.115Z,95.5
2023-05-02T19:17:07.026Z,98
2023-05-02T19:22:07.059Z,98
2023-05-02T19:27:07.047Z,100
2023-05-02T19:32:06.917Z,100
2023-05-02T19:37:07.019Z,99.5
2023-05-02T19:42:06.883Z,98
2023-05-02T19:47:06.928Z,99.5
2023-05-02T19:52:06.778Z,97.5
2023-05-02T19:57:06.958Z,98.5
2023-05-02T20:02:06.897Z,99.5
2023-05-02T20:07:06.723Z,100
2023-05-02T20:12:06.778Z,100
2023-05-02T20:17:06.733Z,100
2023-05-02T20:22:06.660Z,100
2023-05-02T20:27:06.798Z,100
2023-05-02T20:32:06.709Z,100
2023-05-02T20:37:06.674Z,100
2023-05-02T20:42:06.785Z,100
2023-05-02T20:47:06.563Z,100
2023-05-02T20:52:06.672Z,100
2023-05-02T20:57:06.747Z,100
2023-05-02T21:02:06.649Z,100
2023-05-02T21:07:06.468Z,100
2023-05-02T21:12:06.594Z,100
2023-05-02T21:17:06.588Z,100
2023-05-02T21:22:06.591Z,100
2023-05-02T21:27:06.547Z,100
2023-05-02T21:32:06.490Z,100
2023-05-02T21:37:06.509Z,100
2023-05-02T21:42:06.419Z,100
2023-05-02T21:47:06.471Z,100
2023-05-02T21:52:06.289Z,100
2023-05-02T21:57:06.451Z,100
2023-05-02T22:02:06.415Z,100
2023-05-02T22:07:06.216Z,100
2023-05-02T22:12:06.292Z,100
2023-05-02T22:17:06.278Z,100
2023-05-02T22:22:06.158Z,100
2023-05-02T22:27:06.284Z,100
2023-05-02T22:32:06.335Z,0.5
2023-05-02T22:37:06.202Z,3.5
2023-05-02T22:42:06.260Z,3.5
2023-05-02T22:47:06.196Z,3.5
2023-05-02T22:52:06.187Z,3
2023-05-02T22:57:06.210Z,4
2023-05-02T23:02:06.118Z,4.5
2023-05-02T23:07:05.992Z,6
2023-05-02T23:12:06.101Z,5.5
2023-05-02T23:17:06.157Z,6.5
2023-05-02T23:22:06.112Z,6.5
2023-05-02T23:27:06.107Z,7.5
2023-05-02T23:32:06.086Z,6.5
2023-05-02T23:37:05.961Z,8
2023-05-02T23:42:06.081Z,7
2023-05-02T23:47:06.017Z,6.5
2023-05-02T23:52:06.031Z,8
2023-05-02T23:57:06.010Z,8.5
